sensor_id;sensor_type;location;lat;lon;timestamp;P1;durP1;ratioP1;P2;durP2;ratioP2
69892;SDS011;61212;42.688;22.176;2023-02-11T00:03:46;70.35;;;29.02;;
69892;SDS011;61212;42.688;22.176;2023-02-11T00:06:12;64.88;;;28.33;;
69892;SDS011;61212;42.688;22.176;2023-02-11T00:08:38;68.07;;;31.17;;
69892;SDS011;61212;42.688;22.176;2023-02-11T00:11:04;65.68;;;28.27;;
69892;SDS011;61212;42.688;22.176;2023-02-11T00:13:30;66.57;;;28.55;;
69892;SDS011;61212;42.688;22.176;2023-02-11T00:15:56;64.10;;;28.45;;
69892;SDS011;61212;42.688;22.176;2023-02-11T00:18:21;51.65;;;24.88;;
69892;SDS011;61212;42.688;22.176;2023-02-11T00:20:47;53.92;;;23.88;;
69892;SDS011;61212;42.688;22.176;2023-02-11T00:23:13;60.72;;;25.95;;
69892;SDS011;61212;42.688;22.176;2023-02-11T00:25:40;57.25;;;22.73;;
69892;SDS011;61212;42.688;22.176;2023-02-11T00:28:07;52.00;;;23.77;;
69892;SDS011;61212;42.688;22.176;2023-02-11T00:30:34;58.88;;;23.05;;
69892;SDS011;61212;42.688;22.176;2023-02-11T00:33:00;48.70;;;23.02;;
69892;SDS011;61212;42.688;22.176;2023-02-11T00:35:26;63.28;;;25.63;;
69892;SDS011;61212;42.688;22.176;2023-02-11T00:37:52;50.00;;;22.95;;
69892;SDS011;61212;42.688;22.176;2023-02-11T00:40:18;54.20;;;25.40;;
69892;SDS011;61212;42.688;22.176;2023-02-11T00:42:44;59.00;;;26.58;;
69892;SDS011;61212;42.688;22.176;2023-02-11T00:45:10;56.45;;;25.80;;
69892;SDS011;61212;42.688;22.176;2023-02-11T00:47:36;61.10;;;28.73;;
69892;SDS011;61212;42.688;22.176;2023-02-11T00:50:03;69.63;;;28.10;;
69892;SDS011;61212;42.688;22.176;2023-02-11T00:52:29;64.25;;;28.52;;
69892;SDS011;61212;42.688;22.176;2023-02-11T00:54:56;62.22;;;28.10;;
69892;SDS011;61212;42.688;22.176;2023-02-11T00:57:22;56.63;;;25.30;;
69892;SDS011;61212;42.688;22.176;2023-02-11T00:59:47;59.78;;;26.50;;
69892;SDS011;61212;42.688;22.176;2023-02-11T01:02:14;58.58;;;25.23;;
69892;SDS011;61212;42.688;22.176;2023-02-11T01:04:40;48.55;;;21.70;;
69892;SDS011;61212;42.688;22.176;2023-02-11T01:07:06;49.67;;;22.55;;
69892;SDS011;61212;42.688;22.176;2023-02-11T01:09:33;48.90;;;21.52;;
69892;SDS011;61212;42.688;22.176;2023-02-11T01:12:01;58.35;;;25.73;;
69892;SDS011;61212;42.688;22.176;2023-02-11T01:14:27;86.43;;;36.58;;
69892;SDS011;61212;42.688;22.176;2023-02-11T01:16:53;83.60;;;37.10;;
69892;SDS011;61212;42.688;22.176;2023-02-11T01:19:18;70.53;;;29.75;;
69892;SDS011;61212;42.688;22.176;2023-02-11T01:21:44;55.70;;;23.05;;
69892;SDS011;61212;42.688;22.176;2023-02-11T01:24:10;61.63;;;25.77;;
69892;SDS011;61212;42.688;22.176;2023-02-11T01:26:35;70.93;;;26.45;;
69892;SDS011;61212;42.688;22.176;2023-02-11T01:29:01;71.95;;;31.23;;
69892;SDS011;61212;42.688;22.176;2023-02-11T01:31:28;67.72;;;27.40;;
69892;SDS011;61212;42.688;22.176;2023-02-11T01:33:55;69.55;;;28.58;;
69892;SDS011;61212;42.688;22.176;2023-02-11T01:36:20;70.32;;;29.25;;
69892;SDS011;61212;42.688;22.176;2023-02-11T01:38:46;92.70;;;33.35;;
69892;SDS011;61212;42.688;22.176;2023-02-11T01:41:13;90.72;;;33.85;;
69892;SDS011;61212;42.688;22.176;2023-02-11T01:43:41;93.65;;;34.92;;
69892;SDS011;61212;42.688;22.176;2023-02-11T01:48:49;89.55;;;35.38;;
69892;SDS011;61212;42.688;22.176;2023-02-11T01:51:37;80.55;;;33.78;;
69892;SDS011;61212;42.688;22.176;2023-02-11T01:54:08;94.90;;;38.22;;
69892;SDS011;61212;42.688;22.176;2023-02-11T01:56:55;92.15;;;36.95;;
69892;SDS011;61212;42.688;22.176;2023-02-11T01:59:46;85.15;;;35.40;;
69892;SDS011;61212;42.688;22.176;2023-02-11T02:02:23;82.28;;;33.55;;
69892;SDS011;61212;42.688;22.176;2023-02-11T02:05:02;91.72;;;37.72;;
69892;SDS011;61212;42.688;22.176;2023-02-11T02:07:41;79.22;;;31.75;;
69892;SDS011;61212;42.688;22.176;2023-02-11T02:10:17;71.68;;;31.30;;
69892;SDS011;61212;42.688;22.176;2023-02-11T02:12:46;75.13;;;29.02;;
69892;SDS011;61212;42.688;22.176;2023-02-11T02:18:01;53.67;;;21.98;;
69892;SDS011;61212;42.688;22.176;2023-02-11T02:29:17;35.17;;;17.00;;
69892;SDS011;61212;42.688;22.176;2023-02-11T02:37:35;40.05;;;17.00;;
69892;SDS011;61212;42.688;22.176;2023-02-11T02:40:14;47.42;;;19.17;;
69892;SDS011;61212;42.688;22.176;2023-02-11T02:42:44;39.65;;;18.38;;
69892;SDS011;61212;42.688;22.176;2023-02-11T02:45:12;38.95;;;17.10;;
69892;SDS011;61212;42.688;22.176;2023-02-11T02:47:38;39.28;;;19.00;;
69892;SDS011;61212;42.688;22.176;2023-02-11T02:50:04;45.25;;;20.45;;
69892;SDS011;61212;42.688;22.176;2023-02-11T02:55:09;48.85;;;21.50;;
69892;SDS011;61212;42.688;22.176;2023-02-11T02:57:42;51.75;;;20.17;;
69892;SDS011;61212;42.688;22.176;2023-02-11T03:10:33;41.15;;;19.05;;
69892;SDS011;61212;42.688;22.176;2023-02-11T03:13:02;51.20;;;20.92;;
69892;SDS011;61212;42.688;22.176;2023-02-11T03:15:31;49.70;;;19.77;;
69892;SDS011;61212;42.688;22.176;2023-02-11T03:18:02;51.90;;;19.73;;
69892;SDS011;61212;42.688;22.176;2023-02-11T03:20:31;51.50;;;21.65;;
69892;SDS011;61212;42.688;22.176;2023-02-11T03:23:07;55.00;;;22.05;;
69892;SDS011;61212;42.688;22.176;2023-02-11T03:26:01;46.92;;;19.65;;
69892;SDS011;61212;42.688;22.176;2023-02-11T03:28:57;41.10;;;16.38;;
69892;SDS011;61212;42.688;22.176;2023-02-11T03:34:05;49.78;;;18.60;;
69892;SDS011;61212;42.688;22.176;2023-02-11T03:39:13;52.55;;;21.00;;
69892;SDS011;61212;42.688;22.176;2023-02-11T03:41:43;47.65;;;18.52;;
69892;SDS011;61212;42.688;22.176;2023-02-11T03:44:11;71.30;;;26.60;;
69892;SDS011;61212;42.688;22.176;2023-02-11T03:46:39;58.63;;;23.75;;
69892;SDS011;61212;42.688;22.176;2023-02-11T03:49:10;58.00;;;24.35;;
69892;SDS011;61212;42.688;22.176;2023-02-11T03:51:37;47.60;;;21.33;;
69892;SDS011;61212;42.688;22.176;2023-02-11T03:54:05;42.58;;;18.55;;
69892;SDS011;61212;42.688;22.176;2023-02-11T03:56:40;43.50;;;18.75;;
69892;SDS011;61212;42.688;22.176;2023-02-11T03:59:15;39.15;;;18.80;;
69892;SDS011;61212;42.688;22.176;2023-02-11T04:01:40;46.88;;;19.40;;
69892;SDS011;61212;42.688;22.176;2023-02-11T04:04:06;37.85;;;17.13;;
69892;SDS011;61212;42.688;22.176;2023-02-11T04:06:32;50.47;;;19.95;;
69892;SDS011;61212;42.688;22.176;2023-02-11T04:08:58;53.28;;;22.98;;
69892;SDS011;61212;42.688;22.176;2023-02-11T04:11:23;48.42;;;22.15;;
69892;SDS011;61212;42.688;22.176;2023-02-11T04:13:49;46.80;;;19.30;;
69892;SDS011;61212;42.688;22.176;2023-02-11T04:16:15;40.13;;;17.50;;
69892;SDS011;61212;42.688;22.176;2023-02-11T04:18:40;38.72;;;18.10;;
69892;SDS011;61212;42.688;22.176;2023-02-11T04:21:06;43.17;;;20.48;;
69892;SDS011;61212;42.688;22.176;2023-02-11T04:23:32;43.60;;;20.92;;
69892;SDS011;61212;42.688;22.176;2023-02-11T04:25:58;45.53;;;19.67;;
69892;SDS011;61212;42.688;22.176;2023-02-11T04:28:23;38.05;;;17.02;;
69892;SDS011;61212;42.688;22.176;2023-02-11T04:30:50;40.17;;;16.23;;
69892;SDS011;61212;42.688;22.176;2023-02-11T04:33:16;46.13;;;16.27;;
69892;SDS011;61212;42.688;22.176;2023-02-11T04:35:42;37.10;;;16.38;;
69892;SDS011;61212;42.688;22.176;2023-02-11T04:38:08;39.85;;;17.08;;
69892;SDS011;61212;42.688;22.176;2023-02-11T04:40:33;41.83;;;18.73;;
69892;SDS011;61212;42.688;22.176;2023-02-11T04:42:59;46.72;;;20.08;;
69892;SDS011;61212;42.688;22.176;2023-02-11T04:45:25;49.83;;;22.17;;
69892;SDS011;61212;42.688;22.176;2023-02-11T04:47:50;49.83;;;21.92;;
69892;SDS011;61212;42.688;22.176;2023-02-11T04:50:16;51.58;;;22.15;;
69892;SDS011;61212;42.688;22.176;2023-02-11T04:52:42;51.17;;;21.80;;
69892;SDS011;61212;42.688;22.176;2023-02-11T04:55:08;48.47;;;19.08;;
69892;SDS011;61212;42.688;22.176;2023-02-11T04:57:33;59.83;;;23.92;;
69892;SDS011;61212;42.688;22.176;2023-02-11T04:59:59;65.25;;;24.90;;
69892;SDS011;61212;42.688;22.176;2023-02-11T05:02:25;49.90;;;20.77;;
69892;SDS011;61212;42.688;22.176;2023-02-11T05:04:50;50.70;;;20.50;;
69892;SDS011;61212;42.688;22.176;2023-02-11T05:07:16;41.65;;;18.90;;
69892;SDS011;61212;42.688;22.176;2023-02-11T05:09:42;46.47;;;18.20;;
69892;SDS011;61212;42.688;22.176;2023-02-11T05:12:07;50.13;;;19.30;;
69892;SDS011;61212;42.688;22.176;2023-02-11T05:14:33;41.53;;;18.13;;
69892;SDS011;61212;42.688;22.176;2023-02-11T05:16:59;44.38;;;19.20;;
69892;SDS011;61212;42.688;22.176;2023-02-11T05:19:25;46.50;;;21.48;;
69892;SDS011;61212;42.688;22.176;2023-02-11T05:21:50;44.25;;;19.58;;
69892;SDS011;61212;42.688;22.176;2023-02-11T05:24:17;50.53;;;22.77;;
69892;SDS011;61212;42.688;22.176;2023-02-11T05:26:43;56.13;;;23.02;;
69892;SDS011;61212;42.688;22.176;2023-02-11T05:29:08;49.45;;;21.77;;
69892;SDS011;61212;42.688;22.176;2023-02-11T05:31:34;55.33;;;24.55;;
69892;SDS011;61212;42.688;22.176;2023-02-11T05:34:00;55.30;;;21.95;;
69892;SDS011;61212;42.688;22.176;2023-02-11T05:36:28;59.83;;;23.98;;
69892;SDS011;61212;42.688;22.176;2023-02-11T05:38:53;67.18;;;26.60;;
69892;SDS011;61212;42.688;22.176;2023-02-11T05:41:19;57.40;;;24.20;;
69892;SDS011;61212;42.688;22.176;2023-02-11T05:43:47;71.95;;;29.55;;
69892;SDS011;61212;42.688;22.176;2023-02-11T05:46:15;61.45;;;24.83;;
69892;SDS011;61212;42.688;22.176;2023-02-11T05:48:41;59.85;;;26.30;;
69892;SDS011;61212;42.688;22.176;2023-02-11T05:51:07;66.07;;;29.45;;
69892;SDS011;61212;42.688;22.176;2023-02-11T05:53:33;115.13;;;44.05;;
69892;SDS011;61212;42.688;22.176;2023-02-11T05:55:59;140.82;;;56.13;;
69892;SDS011;61212;42.688;22.176;2023-02-11T05:58:25;71.95;;;31.38;;
69892;SDS011;61212;42.688;22.176;2023-02-11T06:00:51;187.45;;;68.45;;
69892;SDS011;61212;42.688;22.176;2023-02-11T06:03:17;85.40;;;36.08;;
69892;SDS011;61212;42.688;22.176;2023-02-11T06:05:43;94.47;;;37.00;;
69892;SDS011;61212;42.688;22.176;2023-02-11T06:08:09;83.45;;;35.17;;
69892;SDS011;61212;42.688;22.176;2023-02-11T06:10:36;88.65;;;35.65;;
69892;SDS011;61212;42.688;22.176;2023-02-11T06:13:01;86.32;;;37.42;;
69892;SDS011;61212;42.688;22.176;2023-02-11T06:15:27;83.85;;;37.67;;
69892;SDS011;61212;42.688;22.176;2023-02-11T06:17:53;85.15;;;36.90;;
69892;SDS011;61212;42.688;22.176;2023-02-11T06:20:19;75.63;;;32.13;;
69892;SDS011;61212;42.688;22.176;2023-02-11T06:22:45;77.40;;;32.10;;
69892;SDS011;61212;42.688;22.176;2023-02-11T06:25:10;73.97;;;29.42;;
69892;SDS011;61212;42.688;22.176;2023-02-11T06:27:37;75.70;;;30.60;;
69892;SDS011;61212;42.688;22.176;2023-02-11T06:30:04;77.63;;;30.77;;
69892;SDS011;61212;42.688;22.176;2023-02-11T06:32:31;74.57;;;32.58;;
69892;SDS011;61212;42.688;22.176;2023-02-11T06:34:57;64.18;;;29.33;;
69892;SDS011;61212;42.688;22.176;2023-02-11T06:37:22;87.53;;;40.05;;
69892;SDS011;61212;42.688;22.176;2023-02-11T06:39:48;72.75;;;37.83;;
69892;SDS011;61212;42.688;22.176;2023-02-11T06:42:14;78.22;;;38.20;;
69892;SDS011;61212;42.688;22.176;2023-02-11T06:44:39;73.95;;;33.10;;
69892;SDS011;61212;42.688;22.176;2023-02-11T06:47:05;89.25;;;40.92;;
69892;SDS011;61212;42.688;22.176;2023-02-11T06:49:31;92.78;;;41.25;;
69892;SDS011;61212;42.688;22.176;2023-02-11T06:51:57;122.13;;;55.15;;
69892;SDS011;61212;42.688;22.176;2023-02-11T06:54:23;125.68;;;61.13;;
69892;SDS011;61212;42.688;22.176;2023-02-11T06:56:49;120.10;;;55.42;;
69892;SDS011;61212;42.688;22.176;2023-02-11T06:59:16;95.25;;;45.85;;
69892;SDS011;61212;42.688;22.176;2023-02-11T07:01:43;105.85;;;50.00;;
69892;SDS011;61212;42.688;22.176;2023-02-11T07:04:09;95.38;;;46.08;;
69892;SDS011;61212;42.688;22.176;2023-02-11T07:06:35;110.32;;;50.60;;
69892;SDS011;61212;42.688;22.176;2023-02-11T07:09:02;85.63;;;40.80;;
69892;SDS011;61212;42.688;22.176;2023-02-11T07:11:29;68.22;;;33.22;;
69892;SDS011;61212;42.688;22.176;2023-02-11T07:13:58;67.97;;;31.13;;
69892;SDS011;61212;42.688;22.176;2023-02-11T07:16:26;64.28;;;29.48;;
69892;SDS011;61212;42.688;22.176;2023-02-11T07:18:52;123.53;;;58.97;;
69892;SDS011;61212;42.688;22.176;2023-02-11T07:21:25;120.53;;;61.67;;
69892;SDS011;61212;42.688;22.176;2023-02-11T07:23:52;124.45;;;63.00;;
69892;SDS011;61212;42.688;22.176;2023-02-11T07:26:21;104.68;;;54.72;;
69892;SDS011;61212;42.688;22.176;2023-02-11T07:28:48;103.43;;;52.13;;
69892;SDS011;61212;42.688;22.176;2023-02-11T07:31:19;70.90;;;36.33;;
69892;SDS011;61212;42.688;22.176;2023-02-11T07:33:50;86.78;;;43.88;;
69892;SDS011;61212;42.688;22.176;2023-02-11T07:36:32;80.00;;;38.17;;
69892;SDS011;61212;42.688;22.176;2023-02-11T07:38:58;82.50;;;41.45;;
69892;SDS011;61212;42.688;22.176;2023-02-11T07:41:52;127.88;;;58.33;;
69892;SDS011;61212;42.688;22.176;2023-02-11T07:44:18;96.13;;;43.60;;
69892;SDS011;61212;42.688;22.176;2023-02-11T07:46:45;86.65;;;39.55;;
69892;SDS011;61212;42.688;22.176;2023-02-11T07:49:13;61.25;;;27.90;;
69892;SDS011;61212;42.688;22.176;2023-02-11T07:51:40;63.42;;;30.75;;
69892;SDS011;61212;42.688;22.176;2023-02-11T07:54:06;56.38;;;25.60;;
69892;SDS011;61212;42.688;22.176;2023-02-11T07:59:07;73.40;;;35.78;;
69892;SDS011;61212;42.688;22.176;2023-02-11T08:01:35;71.32;;;35.80;;
69892;SDS011;61212;42.688;22.176;2023-02-11T08:04:02;64.88;;;32.45;;
69892;SDS011;61212;42.688;22.176;2023-02-11T08:06:31;61.03;;;30.58;;
69892;SDS011;61212;42.688;22.176;2023-02-11T08:09:04;102.13;;;38.97;;
69892;SDS011;61212;42.688;22.176;2023-02-11T08:16:56;102.40;;;53.95;;
69892;SDS011;61212;42.688;22.176;2023-02-11T08:19:22;84.47;;;44.00;;
69892;SDS011;61212;42.688;22.176;2023-02-11T08:21:48;81.30;;;44.08;;
69892;SDS011;61212;42.688;22.176;2023-02-11T08:24:15;111.07;;;49.90;;
69892;SDS011;61212;42.688;22.176;2023-02-11T08:29:32;96.93;;;48.15;;
69892;SDS011;61212;42.688;22.176;2023-02-11T08:31:58;86.78;;;37.10;;
69892;SDS011;61212;42.688;22.176;2023-02-11T16:40:18;93.15;;;45.88;;
69892;SDS011;61212;42.688;22.176;2023-02-11T16:59:25;62.35;;;30.58;;
69892;SDS011;61212;42.688;22.176;2023-02-11T17:01:55;64.00;;;30.88;;
69892;SDS011;61212;42.688;22.176;2023-02-11T17:04:25;64.30;;;31.95;;
69892;SDS011;61212;42.688;22.176;2023-02-11T17:06:55;54.30;;;29.40;;
69892;SDS011;61212;42.688;22.176;2023-02-11T17:09:22;58.15;;;29.27;;
69892;SDS011;61212;42.688;22.176;2023-02-11T17:11:51;49.55;;;24.77;;
69892;SDS011;61212;42.688;22.176;2023-02-11T17:14:18;78.40;;;42.00;;
69892;SDS011;61212;42.688;22.176;2023-02-11T17:16:44;88.28;;;46.95;;
69892;SDS011;61212;42.688;22.176;2023-02-11T17:19:13;56.42;;;29.20;;
69892;SDS011;61212;42.688;22.176;2023-02-11T17:21:44;60.25;;;27.55;;
69892;SDS011;61212;42.688;22.176;2023-02-11T17:24:11;71.35;;;37.63;;
69892;SDS011;61212;42.688;22.176;2023-02-11T17:26:41;61.38;;;33.00;;
69892;SDS011;61212;42.688;22.176;2023-02-11T17:29:08;60.92;;;32.17;;
69892;SDS011;61212;42.688;22.176;2023-02-11T17:31:35;49.67;;;25.38;;
69892;SDS011;61212;42.688;22.176;2023-02-11T17:34:01;52.80;;;26.05;;
69892;SDS011;61212;42.688;22.176;2023-02-11T17:36:28;58.80;;;28.40;;
69892;SDS011;61212;42.688;22.176;2023-02-11T17:38:57;115.28;;;55.45;;
69892;SDS011;61212;42.688;22.176;2023-02-11T17:41:24;114.45;;;55.83;;
69892;SDS011;61212;42.688;22.176;2023-02-11T17:43:50;107.93;;;57.80;;
69892;SDS011;61212;42.688;22.176;2023-02-11T17:46:16;82.25;;;42.15;;
69892;SDS011;61212;42.688;22.176;2023-02-11T17:48:43;73.28;;;39.58;;
69892;SDS011;61212;42.688;22.176;2023-02-11T17:51:22;79.18;;;42.63;;
69892;SDS011;61212;42.688;22.176;2023-02-11T17:53:51;110.25;;;58.42;;
69892;SDS011;61212;42.688;22.176;2023-02-11T17:56:16;126.68;;;66.18;;
69892;SDS011;61212;42.688;22.176;2023-02-11T17:58:42;78.68;;;41.13;;
69892;SDS011;61212;42.688;22.176;2023-02-11T18:01:08;78.57;;;41.97;;
69892;SDS011;61212;42.688;22.176;2023-02-11T18:03:34;82.53;;;42.22;;
69892;SDS011;61212;42.688;22.176;2023-02-11T18:06:00;136.88;;;70.55;;
69892;SDS011;61212;42.688;22.176;2023-02-11T18:08:28;129.10;;;66.93;;
69892;SDS011;61212;42.688;22.176;2023-02-11T18:10:54;176.32;;;78.47;;
69892;SDS011;61212;42.688;22.176;2023-02-11T18:13:20;203.57;;;85.50;;
69892;SDS011;61212;42.688;22.176;2023-02-11T18:15:46;163.73;;;77.95;;
69892;SDS011;61212;42.688;22.176;2023-02-11T18:18:12;166.20;;;76.50;;
69892;SDS011;61212;42.688;22.176;2023-02-11T18:20:37;132.70;;;64.38;;
69892;SDS011;61212;42.688;22.176;2023-02-11T18:23:06;122.50;;;57.47;;
69892;SDS011;61212;42.688;22.176;2023-02-11T18:25:33;116.45;;;57.40;;
69892;SDS011;61212;42.688;22.176;2023-02-11T18:27:59;143.40;;;66.72;;
69892;SDS011;61212;42.688;22.176;2023-02-11T18:30:27;146.68;;;73.55;;
69892;SDS011;61212;42.688;22.176;2023-02-11T18:32:55;157.07;;;79.18;;
69892;SDS011;61212;42.688;22.176;2023-02-11T18:35:24;147.25;;;73.50;;
69892;SDS011;61212;42.688;22.176;2023-02-11T18:37:50;138.88;;;63.20;;
69892;SDS011;61212;42.688;22.176;2023-02-11T18:40:16;126.78;;;61.95;;
69892;SDS011;61212;42.688;22.176;2023-02-11T18:42:44;115.65;;;58.25;;
69892;SDS011;61212;42.688;22.176;2023-02-11T18:45:10;132.70;;;64.88;;
69892;SDS011;61212;42.688;22.176;2023-02-11T18:47:37;134.82;;;62.13;;
69892;SDS011;61212;42.688;22.176;2023-02-11T18:50:04;184.63;;;72.78;;
69892;SDS011;61212;42.688;22.176;2023-02-11T18:52:31;132.00;;;65.80;;
69892;SDS011;61212;42.688;22.176;2023-02-11T18:54:58;142.88;;;66.68;;
69892;SDS011;61212;42.688;22.176;2023-02-11T18:57:24;131.48;;;64.20;;
69892;SDS011;61212;42.688;22.176;2023-02-11T18:59:50;125.75;;;58.17;;
69892;SDS011;61212;42.688;22.176;2023-02-11T19:02:16;115.78;;;54.67;;
69892;SDS011;61212;42.688;22.176;2023-02-11T19:04:43;117.32;;;55.22;;
69892;SDS011;61212;42.688;22.176;2023-02-11T19:07:09;107.03;;;54.10;;
69892;SDS011;61212;42.688;22.176;2023-02-11T19:09:35;115.55;;;57.65;;
69892;SDS011;61212;42.688;22.176;2023-02-11T19:12:01;131.05;;;61.63;;
69892;SDS011;61212;42.688;22.176;2023-02-11T19:14:29;119.53;;;57.55;;
69892;SDS011;61212;42.688;22.176;2023-02-11T19:16:56;103.35;;;52.17;;
69892;SDS011;61212;42.688;22.176;2023-02-11T19:19:23;103.95;;;50.50;;
69892;SDS011;61212;42.688;22.176;2023-02-11T19:21:50;112.22;;;51.00;;
69892;SDS011;61212;42.688;22.176;2023-02-11T19:24:17;106.53;;;49.63;;
69892;SDS011;61212;42.688;22.176;2023-02-11T19:26:44;113.85;;;51.85;;
69892;SDS011;61212;42.688;22.176;2023-02-11T19:29:11;111.68;;;54.72;;
69892;SDS011;61212;42.688;22.176;2023-02-11T19:31:37;110.57;;;55.08;;
69892;SDS011;61212;42.688;22.176;2023-02-11T19:34:04;112.70;;;55.00;;
69892;SDS011;61212;42.688;22.176;2023-02-11T19:36:42;96.93;;;47.70;;
69892;SDS011;61212;42.688;22.176;2023-02-11T23:22:12;318.38;;;138.65;;
69892;SDS011;61212;42.688;22.176;2023-02-11T23:25:00;210.77;;;93.53;;
69892;SDS011;61212;42.688;22.176;2023-02-11T23:28:16;198.57;;;93.70;;
